Tracys Landing, MD (20779)

2:58 PM EDT on August 27, 2016 (GMT -0400)
Tracy's Lane | | Change Station

Elev 104 ft 38.77 °N, 76.59 °W | Updated 7 seconds ago

Clear
Clear
89.8 °F
Feels Like 94 °F
N
1.2
Wind Variable Wind from East
Gusts 3.0 mph

Today
High -- | Low -- °F
--% Chance of Precip.
Yesterday
High -- | Low -- °F
Precip. -- in
Pressure 30.17 in
Visibility 10.0 miles
Clouds Clear
Heat Index 94 °F
Dew Point 69 °F
Humidity 50%
Rainfall 0.00 in
Snow Depth Not available.
6:31 AM 7:43 PM
Waning Crescent, 22% visible
METAR KNAK 271854Z AUTO 12004KT 10SM CLR 31/21 A3016 RMK AO2 SLP215 T03110206
Pressure 30.17 in
Visibility 10.0 miles
Clouds Clear
Heat Index 94 °F
Dew Point 69 °F
Humidity 50%
Rainfall 0.00 in
Snow Depth Not available.
6:31 AM 7:43 PM
Waning Crescent, 22% visible
METAR KNAK 271854Z AUTO 12004KT 10SM CLR 31/21 A3016 RMK AO2 SLP215 T03110206

10-Day Weather Forecast

Almanac

Astronomy

Aug. 27, 2016 Rise Set
Actual Time
Civil Twilight
Nautical Twilight
Astronomical Twilight
Moon
Length of Visible Light
Length of Day
Tomorrow will be .
, % of the Moon is Illuminated

Today's Extremes

State Highs State Lows

Community

WunderPhotos

Upload Photos

1,935,399 photos uploaded!

WunderBlog® & News

Nearby

Air Quality

  Air Quality AQ Index Pollutant
Not available.

Snow Depth

Station Depth Elevation

Earthquake Activity

City Distance Mag. Time & Date
Minimum magnitude displayed is 2.5.

Coastal Water Temperatures

Place Temperature

Stations

Nearby Weather Stations

Station Location Temp. Windchill Dew Point Humidity Wind Precip. Elev Updated Type
                   

Watches & Warnings

There are currently no watches in effect.